sensor_id;sensor_type;location;lat;lon;timestamp;pressure;altitude;pressure_sealevel;temperature;humidity
65718;BME280;52445;52.466;-1.016;2023-12-29T00:00:59;98843.53;;;7.83;72.06
65718;BME280;52445;52.466;-1.016;2023-12-29T00:03:27;98853.00;;;7.81;71.55
65718;BME280;52445;52.466;-1.016;2023-12-29T00:05:56;98834.84;;;7.92;71.62
65718;BME280;52445;52.466;-1.016;2023-12-29T00:08:23;98846.88;;;7.91;72.23
65718;BME280;52445;52.466;-1.016;2023-12-29T00:10:49;98857.13;;;7.97;71.85
65718;BME280;52445;52.466;-1.016;2023-12-29T00:13:16;98863.16;;;7.96;72.85
65718;BME280;52445;52.466;-1.016;2023-12-29T00:15:52;98865.72;;;8.00;72.68
65718;BME280;52445;52.466;-1.016;2023-12-29T00:18:19;98858.00;;;7.96;72.91
65718;BME280;52445;52.466;-1.016;2023-12-29T00:20:47;98851.97;;;7.97;73.38
65718;BME280;52445;52.466;-1.016;2023-12-29T00:23:14;98855.50;;;7.87;72.96
65718;BME280;52445;52.466;-1.016;2023-12-29T00:25:41;98846.88;;;7.91;73.21
65718;BME280;52445;52.466;-1.016;2023-12-29T00:28:08;98852.00;;;7.94;72.90
65718;BME280;52445;52.466;-1.016;2023-12-29T00:30:38;98842.56;;;7.93;72.53
65718;BME280;52445;52.466;-1.016;2023-12-29T00:33:23;98834.88;;;7.87;72.88
65718;BME280;52445;52.466;-1.016;2023-12-29T00:35:50;98833.22;;;7.83;73.34
65718;BME280;52445;52.466;-1.016;2023-12-29T00:38:18;98841.06;;;7.72;73.82
65718;BME280;52445;52.466;-1.016;2023-12-29T00:40:44;98824.69;;;7.78;73.13
65718;BME280;52445;52.466;-1.016;2023-12-29T00:43:12;98835.81;;;7.81;74.18
65718;BME280;52445;52.466;-1.016;2023-12-29T00:45:39;98837.53;;;7.82;73.63
65718;BME280;52445;52.466;-1.016;2023-12-29T00:48:06;98840.13;;;7.81;73.69
65718;BME280;52445;52.466;-1.016;2023-12-29T00:50:33;98829.78;;;7.84;73.46
65718;BME280;52445;52.466;-1.016;2023-12-29T00:52:59;98818.66;;;7.79;73.83
65718;BME280;52445;52.466;-1.016;2023-12-29T00:55:26;98816.09;;;7.76;74.47
65718;BME280;52445;52.466;-1.016;2023-12-29T00:57:53;98810.94;;;7.76;73.50
65718;BME280;52445;52.466;-1.016;2023-12-29T01:00:20;98798.97;;;7.71;74.28
65718;BME280;52445;52.466;-1.016;2023-12-29T01:02:47;98795.59;;;7.66;73.73
65718;BME280;52445;52.466;-1.016;2023-12-29T01:05:17;98793.88;;;7.67;74.60
65718;BME280;52445;52.466;-1.016;2023-12-29T01:07:44;98800.88;;;7.57;73.88
65718;BME280;52445;52.466;-1.016;2023-12-29T01:10:13;98797.38;;;7.61;74.29
65718;BME280;52445;52.466;-1.016;2023-12-29T01:12:41;98796.66;;;7.50;75.00
65718;BME280;52445;52.466;-1.016;2023-12-29T01:15:12;98795.75;;;7.54;74.35
65718;BME280;52445;52.466;-1.016;2023-12-29T01:17:43;98813.78;;;7.54;75.07
65718;BME280;52445;52.466;-1.016;2023-12-29T01:20:13;98816.34;;;7.54;74.53
65718;BME280;52445;52.466;-1.016;2023-12-29T01:22:39;98818.03;;;7.58;75.12
65718;BME280;52445;52.466;-1.016;2023-12-29T01:25:06;98821.47;;;7.57;74.41
65718;BME280;52445;52.466;-1.016;2023-12-29T01:27:33;98813.66;;;7.63;74.60
65718;BME280;52445;52.466;-1.016;2023-12-29T01:30:00;98814.53;;;7.65;74.41
65718;BME280;52445;52.466;-1.016;2023-12-29T01:32:27;98821.47;;;7.57;74.29
65718;BME280;52445;52.466;-1.016;2023-12-29T01:34:57;98825.66;;;7.67;74.36
65718;BME280;52445;52.466;-1.016;2023-12-29T01:37:25;98816.19;;;7.71;74.40
65718;BME280;52445;52.466;-1.016;2023-12-29T01:39:54;98821.34;;;7.69;74.66
65718;BME280;52445;52.466;-1.016;2023-12-29T01:42:20;98816.16;;;7.72;74.50
65718;BME280;52445;52.466;-1.016;2023-12-29T01:44:48;98823.91;;;7.72;75.18
65718;BME280;52445;52.466;-1.016;2023-12-29T01:47:21;98811.00;;;7.72;74.89
65718;BME280;52445;52.466;-1.016;2023-12-29T01:49:49;98816.97;;;7.75;75.10
65718;BME280;52445;52.466;-1.016;2023-12-29T01:52:17;98823.03;;;7.70;75.18
65718;BME280;52445;52.466;-1.016;2023-12-29T01:54:46;98829.06;;;7.71;75.13
65718;BME280;52445;52.466;-1.016;2023-12-29T01:57:14;98823.03;;;7.70;75.24
65718;BME280;52445;52.466;-1.016;2023-12-29T01:59:41;98817.91;;;7.67;74.81
65718;BME280;52445;52.466;-1.016;2023-12-29T02:02:10;98814.50;;;7.68;74.88
65718;BME280;52445;52.466;-1.016;2023-12-29T02:04:38;98804.19;;;7.68;74.60
65718;BME280;52445;52.466;-1.016;2023-12-29T02:07:06;98809.34;;;7.68;74.85
65718;BME280;52445;52.466;-1.016;2023-12-29T02:09:34;98821.38;;;7.66;73.83
65718;BME280;52445;52.466;-1.016;2023-12-29T02:12:02;98819.66;;;7.68;73.64
65718;BME280;52445;52.466;-1.016;2023-12-29T02:14:29;98823.91;;;7.72;74.19
65718;BME280;52445;52.466;-1.016;2023-12-29T02:22:14;98845.38;;;7.71;73.28
65718;BME280;52445;52.466;-1.016;2023-12-29T02:24:49;98843.66;;;7.70;73.01
65718;BME280;52445;52.466;-1.016;2023-12-29T02:32:41;98842.78;;;7.71;74.24
65718;BME280;52445;52.466;-1.016;2023-12-29T02:35:13;98849.59;;;7.77;73.16
65718;BME280;52445;52.466;-1.016;2023-12-29T02:37:42;98843.66;;;7.70;73.43
65718;BME280;52445;52.466;-1.016;2023-12-29T02:40:09;98828.16;;;7.74;74.44
65718;BME280;52445;52.466;-1.016;2023-12-29T02:42:38;98818.78;;;7.68;74.02
65718;BME280;52445;52.466;-1.016;2023-12-29T02:45:05;98818.75;;;7.71;73.99
65718;BME280;52445;52.466;-1.016;2023-12-29T02:47:31;98821.34;;;7.71;74.95
65718;BME280;52445;52.466;-1.016;2023-12-29T02:49:58;98835.97;;;7.66;74.08
65718;BME280;52445;52.466;-1.016;2023-12-29T02:52:25;98833.47;;;7.61;74.95
65718;BME280;52445;52.466;-1.016;2023-12-29T02:54:52;98824.03;;;7.58;74.58
65718;BME280;52445;52.466;-1.016;2023-12-29T02:57:18;98824.91;;;7.57;74.46
65718;BME280;52445;52.466;-1.016;2023-12-29T02:59:45;98823.22;;;7.52;75.49
65718;BME280;52445;52.466;-1.016;2023-12-29T03:02:12;98832.72;;;7.50;75.58
65718;BME280;52445;52.466;-1.016;2023-12-29T03:04:39;98830.16;;;7.46;75.51
65718;BME280;52445;52.466;-1.016;2023-12-29T03:07:05;98825.03;;;7.43;75.26
65718;BME280;52445;52.466;-1.016;2023-12-29T03:09:32;98829.38;;;7.40;75.11
65718;BME280;52445;52.466;-1.016;2023-12-29T03:11:59;98825.09;;;7.37;75.23
65718;BME280;52445;52.466;-1.016;2023-12-29T03:14:25;98836.25;;;7.36;75.57
65718;BME280;52445;52.466;-1.016;2023-12-29T03:16:52;98836.25;;;7.36;74.78
65718;BME280;52445;52.466;-1.016;2023-12-29T03:19:19;98851.69;;;7.39;74.27
65718;BME280;52445;52.466;-1.016;2023-12-29T03:21:48;98843.97;;;7.39;74.72
65718;BME280;52445;52.466;-1.016;2023-12-29T03:24:15;98844.88;;;7.32;74.79
65718;BME280;52445;52.466;-1.016;2023-12-29T03:26:42;98828.53;;;7.36;74.07
65718;BME280;52445;52.466;-1.016;2023-12-29T03:29:09;98831.97;;;7.35;74.54
65718;BME280;52445;52.466;-1.016;2023-12-29T03:31:36;98838.03;;;7.32;74.85
65718;BME280;52445;52.466;-1.016;2023-12-29T03:34:03;98835.50;;;7.25;73.44
65718;BME280;52445;52.466;-1.016;2023-12-29T03:36:32;98838.03;;;7.29;74.64
65718;BME280;52445;52.466;-1.016;2023-12-29T03:38:59;98840.63;;;7.28;73.98
65718;BME280;52445;52.466;-1.016;2023-12-29T03:41:26;98836.38;;;7.25;74.82
65718;BME280;52445;52.466;-1.016;2023-12-29T03:43:52;98832.91;;;7.26;73.94
65718;BME280;52445;52.466;-1.016;2023-12-29T03:46:20;98824.41;;;7.18;74.59
65718;BME280;52445;52.466;-1.016;2023-12-29T03:48:47;98823.50;;;7.24;74.75
65718;BME280;52445;52.466;-1.016;2023-12-29T03:51:15;98816.66;;;7.23;74.75
65718;BME280;52445;52.466;-1.016;2023-12-29T03:53:43;98817.47;;;7.23;73.97
65718;BME280;52445;52.466;-1.016;2023-12-29T03:56:14;98809.84;;;7.12;74.25
65718;BME280;52445;52.466;-1.016;2023-12-29T03:58:42;98808.06;;;7.20;73.65
65718;BME280;52445;52.466;-1.016;2023-12-29T04:01:11;98812.38;;;7.18;75.02
65718;BME280;52445;52.466;-1.016;2023-12-29T04:03:38;98816.69;;;7.16;74.82
65718;BME280;52445;52.466;-1.016;2023-12-29T04:06:07;98818.44;;;7.14;74.46
65718;BME280;52445;52.466;-1.016;2023-12-29T04:08:34;98821.81;;;7.19;75.32
65718;BME280;52445;52.466;-1.016;2023-12-29T04:11:02;98826.16;;;7.14;74.69
65718;BME280;52445;52.466;-1.016;2023-12-29T04:13:29;98813.28;;;7.14;74.32
65718;BME280;52445;52.466;-1.016;2023-12-29T04:15:56;98820.13;;;7.18;74.29
65718;BME280;52445;52.466;-1.016;2023-12-29T04:18:23;98816.69;;;7.16;75.12
65718;BME280;52445;52.466;-1.016;2023-12-29T04:20:50;98813.22;;;7.20;74.38
65718;BME280;52445;52.466;-1.016;2023-12-29T04:23:17;98814.94;;;7.22;74.56
65718;BME280;52445;52.466;-1.016;2023-12-29T04:25:44;98813.22;;;7.20;74.32
65718;BME280;52445;52.466;-1.016;2023-12-29T04:28:11;98828.66;;;7.20;75.47
65718;BME280;52445;52.466;-1.016;2023-12-29T04:30:37;98819.25;;;7.18;75.89
65718;BME280;52445;52.466;-1.016;2023-12-29T04:33:05;98825.25;;;7.22;74.46
65718;BME280;52445;52.466;-1.016;2023-12-29T04:35:32;98820.09;;;7.22;74.71
65718;BME280;52445;52.466;-1.016;2023-12-29T04:37:59;98823.53;;;7.17;74.74
65718;BME280;52445;52.466;-1.016;2023-12-29T04:40:26;98810.72;;;7.14;75.54
65718;BME280;52445;52.466;-1.016;2023-12-29T04:42:54;98819.34;;;7.09;74.75
65718;BME280;52445;52.466;-1.016;2023-12-29T04:45:21;98807.38;;;7.00;75.74
65718;BME280;52445;52.466;-1.016;2023-12-29T04:47:47;98806.53;;;6.98;76.18
65718;BME280;52445;52.466;-1.016;2023-12-29T04:50:14;98804.84;;;6.93;75.72
65718;BME280;52445;52.466;-1.016;2023-12-29T04:52:42;98804.91;;;6.87;75.48
65718;BME280;52445;52.466;-1.016;2023-12-29T04:55:11;98819.50;;;6.88;75.15
65718;BME280;52445;52.466;-1.016;2023-12-29T04:57:39;98816.94;;;6.82;76.81
65718;BME280;52445;52.466;-1.016;2023-12-29T05:00:08;98812.69;;;6.78;77.14
65718;BME280;52445;52.466;-1.016;2023-12-29T05:02:34;98813.56;;;6.77;75.89
65718;BME280;52445;52.466;-1.016;2023-12-29T05:05:01;98814.44;;;6.77;77.09
65718;BME280;52445;52.466;-1.016;2023-12-29T05:07:28;98813.59;;;6.74;75.80
65718;BME280;52445;52.466;-1.016;2023-12-29T05:09:54;98813.59;;;6.74;75.68
65718;BME280;52445;52.466;-1.016;2023-12-29T05:12:21;98813.66;;;6.67;76.36
65718;BME280;52445;52.466;-1.016;2023-12-29T05:14:48;98815.34;;;6.65;76.16
65718;BME280;52445;52.466;-1.016;2023-12-29T05:17:15;98823.06;;;6.67;76.96
65718;BME280;52445;52.466;-1.016;2023-12-29T05:19:41;98821.38;;;6.64;77.12
65718;BME280;52445;52.466;-1.016;2023-12-29T05:22:08;98832.50;;;6.66;76.49
65718;BME280;52445;52.466;-1.016;2023-12-29T05:24:35;98829.97;;;6.63;76.83
65718;BME280;52445;52.466;-1.016;2023-12-29T05:27:02;98828.22;;;6.64;76.33
65718;BME280;52445;52.466;-1.016;2023-12-29T05:29:30;98830.81;;;6.62;75.91
65718;BME280;52445;52.466;-1.016;2023-12-29T05:31:57;98824.78;;;6.66;77.19
65718;BME280;52445;52.466;-1.016;2023-12-29T05:34:23;98827.34;;;6.66;76.07
65718;BME280;52445;52.466;-1.016;2023-12-29T05:36:50;98834.22;;;6.67;76.84
65718;BME280;52445;52.466;-1.016;2023-12-29T05:39:18;98841.06;;;6.68;76.77
65718;BME280;52445;52.466;-1.016;2023-12-29T05:41:45;98841.97;;;6.60;76.92
65718;BME280;52445;52.466;-1.016;2023-12-29T05:44:11;98848.81;;;6.61;76.26
65718;BME280;52445;52.466;-1.016;2023-12-29T05:46:46;98856.50;;;6.70;76.30
65718;BME280;52445;52.466;-1.016;2023-12-29T05:49:13;98848.81;;;6.65;76.33
65718;BME280;52445;52.466;-1.016;2023-12-29T05:51:39;98848.81;;;6.64;76.74
65718;BME280;52445;52.466;-1.016;2023-12-29T05:54:06;98853.13;;;6.63;76.62
65718;BME280;52445;52.466;-1.016;2023-12-29T05:56:34;98859.97;;;6.64;75.04
65718;BME280;52445;52.466;-1.016;2023-12-29T05:59:01;98853.13;;;6.63;76.25
65718;BME280;52445;52.466;-1.016;2023-12-29T06:01:27;98853.94;;;6.70;75.61
65718;BME280;52445;52.466;-1.016;2023-12-29T06:03:54;98852.22;;;6.69;75.66
65718;BME280;52445;52.466;-1.016;2023-12-29T06:06:22;98848.78;;;6.68;76.17
65718;BME280;52445;52.466;-1.016;2023-12-29T06:08:49;98852.22;;;6.69;74.71
65718;BME280;52445;52.466;-1.016;2023-12-29T06:11:16;98859.09;;;6.68;76.04
65718;BME280;52445;52.466;-1.016;2023-12-29T06:13:43;98859.09;;;6.62;75.99
65718;BME280;52445;52.466;-1.016;2023-12-29T06:16:09;98865.13;;;6.64;75.24
65718;BME280;52445;52.466;-1.016;2023-12-29T06:18:36;98863.41;;;6.63;75.76
65718;BME280;52445;52.466;-1.016;2023-12-29T06:21:05;98870.25;;;6.64;75.12
65718;BME280;52445;52.466;-1.016;2023-12-29T06:23:32;98866.81;;;6.62;75.08
65718;BME280;52445;52.466;-1.016;2023-12-29T06:25:58;98863.44;;;6.60;76.15
65718;BME280;52445;52.466;-1.016;2023-12-29T06:28:25;98876.28;;;6.60;75.11
65718;BME280;52445;52.466;-1.016;2023-12-29T06:30:52;98881.44;;;6.60;74.72
65718;BME280;52445;52.466;-1.016;2023-12-29T06:33:19;98877.16;;;6.59;74.68
65718;BME280;52445;52.466;-1.016;2023-12-29T06:35:48;98884.88;;;6.59;75.08
65718;BME280;52445;52.466;-1.016;2023-12-29T06:38:15;98883.16;;;6.58;75.15
65718;BME280;52445;52.466;-1.016;2023-12-29T06:40:41;98892.63;;;6.53;73.86
65718;BME280;52445;52.466;-1.016;2023-12-29T06:43:08;98896.06;;;6.46;75.07
65718;BME280;52445;52.466;-1.016;2023-12-29T06:45:35;98889.19;;;6.51;74.04
65718;BME280;52445;52.466;-1.016;2023-12-29T06:48:01;98886.66;;;6.46;74.57
65718;BME280;52445;52.466;-1.016;2023-12-29T06:50:29;98880.63;;;6.52;74.41
65718;BME280;52445;52.466;-1.016;2023-12-29T06:52:55;98884.91;;;6.47;74.50
65718;BME280;52445;52.466;-1.016;2023-12-29T06:55:24;98874.69;;;6.42;73.91
65718;BME280;52445;52.466;-1.016;2023-12-29T06:57:52;98885.78;;;6.46;74.04
65718;BME280;52445;52.466;-1.016;2023-12-29T07:00:19;98893.50;;;6.47;73.74
65718;BME280;52445;52.466;-1.016;2023-12-29T07:02:46;98884.91;;;6.45;73.32
65718;BME280;52445;52.466;-1.016;2023-12-29T07:05:13;98891.81;;;6.40;73.97
65718;BME280;52445;52.466;-1.016;2023-12-29T07:07:39;98892.69;;;6.40;73.79
65718;BME280;52445;52.466;-1.016;2023-12-29T07:10:07;98897.81;;;6.40;74.38
65718;BME280;52445;52.466;-1.016;2023-12-29T07:12:37;98902.97;;;6.40;74.47
65718;BME280;52445;52.466;-1.016;2023-12-29T07:15:04;98910.69;;;6.39;72.94
65718;BME280;52445;52.466;-1.016;2023-12-29T07:17:30;98913.28;;;6.34;74.25
65718;BME280;52445;52.466;-1.016;2023-12-29T07:19:57;98916.72;;;6.36;73.16
65718;BME280;52445;52.466;-1.016;2023-12-29T07:22:24;98916.72;;;6.33;73.49
65718;BME280;52445;52.466;-1.016;2023-12-29T07:24:53;98920.16;;;6.32;74.30
65718;BME280;52445;52.466;-1.016;2023-12-29T07:27:20;98923.56;;;6.31;73.14
65718;BME280;52445;52.466;-1.016;2023-12-29T07:29:47;98923.56;;;6.28;74.21
65718;BME280;52445;52.466;-1.016;2023-12-29T07:32:13;98930.44;;;6.29;74.22
65718;BME280;52445;52.466;-1.016;2023-12-29T07:34:40;98927.88;;;6.30;74.81
65718;BME280;52445;52.466;-1.016;2023-12-29T07:37:07;98929.59;;;6.25;73.82
65718;BME280;52445;52.466;-1.016;2023-12-29T07:39:36;98933.84;;;6.28;73.89
65718;BME280;52445;52.466;-1.016;2023-12-29T07:42:03;98940.72;;;6.26;74.80
65718;BME280;52445;52.466;-1.016;2023-12-29T07:44:32;98925.31;;;6.20;74.51
65718;BME280;52445;52.466;-1.016;2023-12-29T07:46:58;98927.03;;;6.21;74.87
65718;BME280;52445;52.466;-1.016;2023-12-29T07:49:25;98931.31;;;6.23;75.07
65718;BME280;52445;52.466;-1.016;2023-12-29T07:51:53;98937.31;;;6.21;75.16
65718;BME280;52445;52.466;-1.016;2023-12-29T07:54:19;98942.47;;;6.21;74.64
65718;BME280;52445;52.466;-1.016;2023-12-29T07:56:46;98939.91;;;6.17;74.13
65718;BME280;52445;52.466;-1.016;2023-12-29T07:59:13;98944.19;;;6.15;74.55
65718;BME280;52445;52.466;-1.016;2023-12-29T08:01:39;98948.47;;;6.13;73.68
65718;BME280;52445;52.466;-1.016;2023-12-29T08:04:06;98956.19;;;6.10;74.42
65718;BME280;52445;52.466;-1.016;2023-12-29T08:06:33;98951.06;;;6.04;73.85
65718;BME280;52445;52.466;-1.016;2023-12-29T08:09:00;98955.34;;;6.00;74.36
65718;BME280;52445;52.466;-1.016;2023-12-29T08:11:27;98952.75;;;5.99;73.92
65718;BME280;52445;52.466;-1.016;2023-12-29T08:13:53;98955.31;;;5.92;75.19
65718;BME280;52445;52.466;-1.016;2023-12-29T08:16:20;98951.06;;;5.88;75.32
65718;BME280;52445;52.466;-1.016;2023-12-29T08:18:49;98956.19;;;5.88;74.12
65718;BME280;52445;52.466;-1.016;2023-12-29T08:21:17;98957.91;;;5.86;73.95
65718;BME280;52445;52.466;-1.016;2023-12-29T08:23:46;98957.06;;;5.86;75.27
65718;BME280;52445;52.466;-1.016;2023-12-29T08:26:14;98955.34;;;5.83;74.64
65718;BME280;52445;52.466;-1.016;2023-12-29T08:28:41;98956.22;;;5.85;75.76
65718;BME280;52445;52.466;-1.016;2023-12-29T08:31:07;98951.09;;;5.85;75.57
65718;BME280;52445;52.466;-1.016;2023-12-29T08:33:35;98952.78;;;5.83;76.03
65718;BME280;52445;52.466;-1.016;2023-12-29T08:36:03;98958.75;;;5.88;74.85
65718;BME280;52445;52.466;-1.016;2023-12-29T08:38:30;98965.63;;;5.86;74.80
65718;BME280;52445;52.466;-1.016;2023-12-29T08:40:59;98962.19;;;5.86;75.43
65718;BME280;52445;52.466;-1.016;2023-12-29T08:43:26;98958.75;;;5.90;74.95
65718;BME280;52445;52.466;-1.016;2023-12-29T08:45:53;98969.91;;;5.90;75.28
65718;BME280;52445;52.466;-1.016;2023-12-29T08:48:20;98972.47;;;5.92;75.30
65718;BME280;52445;52.466;-1.016;2023-12-29T08:50:47;98965.59;;;5.92;75.39
65718;BME280;52445;52.466;-1.016;2023-12-29T08:53:14;98967.34;;;5.92;75.26
65718;BME280;52445;52.466;-1.016;2023-12-29T08:55:43;98962.19;;;5.94;76.33
65718;BME280;52445;52.466;-1.016;2023-12-29T08:58:10;98968.19;;;5.96;75.43
65718;BME280;52445;52.466;-1.016;2023-12-29T09:00:37;98969.06;;;5.99;74.89
65718;BME280;52445;52.466;-1.016;2023-12-29T09:03:04;98963.91;;;6.04;75.60
65718;BME280;52445;52.466;-1.016;2023-12-29T09:05:31;98980.19;;;6.04;74.83
65718;BME280;52445;52.466;-1.016;2023-12-29T09:07:57;98990.50;;;6.06;75.63
65718;BME280;52445;52.466;-1.016;2023-12-29T09:10:26;98981.03;;;6.08;76.54
65718;BME280;52445;52.466;-1.016;2023-12-29T09:12:52;98993.06;;;6.09;75.09
65718;BME280;52445;52.466;-1.016;2023-12-29T09:15:20;98980.16;;;6.12;75.91
65718;BME280;52445;52.466;-1.016;2023-12-29T09:17:46;98988.75;;;6.08;76.60
65718;BME280;52445;52.466;-1.016;2023-12-29T09:20:13;98996.47;;;6.11;75.10
65718;BME280;52445;52.466;-1.016;2023-12-29T09:22:41;99004.19;;;6.17;76.50
65718;BME280;52445;52.466;-1.016;2023-12-29T09:25:08;98991.31;;;6.19;75.43
65718;BME280;52445;52.466;-1.016;2023-12-29T09:27:35;98990.47;;;6.25;75.51
65718;BME280;52445;52.466;-1.016;2023-12-29T09:30:03;98993.88;;;6.27;75.05
65718;BME280;52445;52.466;-1.016;2023-12-29T09:32:30;98996.44;;;6.35;75.94
65718;BME280;52445;52.466;-1.016;2023-12-29T09:34:57;98988.72;;;6.38;76.44
65718;BME280;52445;52.466;-1.016;2023-12-29T09:37:24;98991.25;;;6.44;74.81
65718;BME280;52445;52.466;-1.016;2023-12-29T09:39:52;98988.69;;;6.52;74.86
65718;BME280;52445;52.466;-1.016;2023-12-29T09:42:21;99000.66;;;6.53;75.41
65718;BME280;52445;52.466;-1.016;2023-12-29T09:44:50;99004.94;;;6.59;74.77
65718;BME280;52445;52.466;-1.016;2023-12-29T09:47:23;99005.78;;;6.61;75.06
65718;BME280;52445;52.466;-1.016;2023-12-29T09:49:51;99033.25;;;6.60;74.57
65718;BME280;52445;52.466;-1.016;2023-12-29T09:52:20;99028.09;;;6.63;74.62
65718;BME280;52445;52.466;-1.016;2023-12-29T09:54:48;99019.50;;;6.67;74.79
65718;BME280;52445;52.466;-1.016;2023-12-29T09:57:17;99014.31;;;6.71;74.85
65718;BME280;52445;52.466;-1.016;2023-12-29T09:59:45;99020.31;;;6.73;74.88
65718;BME280;52445;52.466;-1.016;2023-12-29T10:02:15;99016.88;;;6.77;75.29
65718;BME280;52445;52.466;-1.016;2023-12-29T10:04:42;99028.03;;;6.79;75.17
65718;BME280;52445;52.466;-1.016;2023-12-29T10:07:15;99019.44;;;6.78;75.35
65718;BME280;52445;52.466;-1.016;2023-12-29T10:09:45;99031.44;;;6.84;75.39
65718;BME280;52445;52.466;-1.016;2023-12-29T10:12:14;99028.00;;;6.82;74.11
65718;BME280;52445;52.466;-1.016;2023-12-29T10:20:21;99034.84;;;6.89;73.99
65718;BME280;52445;52.466;-1.016;2023-12-29T10:25:30;99032.09;;;7.28;73.34
65718;BME280;52445;52.466;-1.016;2023-12-29T10:27:57;99039.91;;;7.11;74.57
65718;BME280;52445;52.466;-1.016;2023-12-29T10:30:24;99038.22;;;7.07;74.42
65718;BME280;52445;52.466;-1.016;2023-12-29T10:33:00;99034.78;;;7.05;73.95
65718;BME280;52445;52.466;-1.016;2023-12-29T10:35:30;99036.53;;;7.03;73.70
65718;BME280;52445;52.466;-1.016;2023-12-29T10:38:10;99045.06;;;7.05;74.24
65718;BME280;52445;52.466;-1.016;2023-12-29T10:40:37;99039.91;;;7.08;73.98
65718;BME280;52445;52.466;-1.016;2023-12-29T10:43:05;99040.78;;;7.10;74.42
65718;BME280;52445;52.466;-1.016;2023-12-29T10:45:34;99048.47;;;7.13;75.22
65718;BME280;52445;52.466;-1.016;2023-12-29T10:48:03;99047.63;;;7.16;74.00
65718;BME280;52445;52.466;-1.016;2023-12-29T10:50:30;99057.06;;;7.15;74.07
65718;BME280;52445;52.466;-1.016;2023-12-29T10:53:11;99063.06;;;7.16;73.67
65718;BME280;52445;52.466;-1.016;2023-12-29T10:55:38;99069.91;;;7.20;74.76
65718;BME280;52445;52.466;-1.016;2023-12-29T10:58:05;99060.44;;;7.24;74.73
65718;BME280;52445;52.466;-1.016;2023-12-29T11:00:32;99059.56;;;7.25;74.19
65718;BME280;52445;52.466;-1.016;2023-12-29T11:02:59;99051.84;;;7.26;74.90
65718;BME280;52445;52.466;-1.016;2023-12-29T11:05:28;99054.41;;;7.26;74.09
65718;BME280;52445;52.466;-1.016;2023-12-29T11:07:55;99044.97;;;7.30;74.77
65718;BME280;52445;52.466;-1.016;2023-12-29T11:10:22;99052.69;;;7.28;74.90
65718;BME280;52445;52.466;-1.016;2023-12-29T11:12:49;99046.69;;;7.31;74.66
65718;BME280;52445;52.466;-1.016;2023-12-29T11:15:17;99048.38;;;7.35;73.88
65718;BME280;52445;52.466;-1.016;2023-12-29T11:17:44;99038.06;;;7.35;74.62
65718;BME280;52445;52.466;-1.016;2023-12-29T11:20:16;99036.34;;;7.37;74.77
65718;BME280;52445;52.466;-1.016;2023-12-29T11:22:46;99029.44;;;7.42;74.80
65718;BME280;52445;52.466;-1.016;2023-12-29T11:25:13;99031.13;;;7.43;74.92
65718;BME280;52445;52.466;-1.016;2023-12-29T11:27:42;99039.72;;;7.45;73.83
65718;BME280;52445;52.466;-1.016;2023-12-29T11:30:11;99030.25;;;7.46;74.40
65718;BME280;52445;52.466;-1.016;2023-12-29T11:35:26;99043.97;;;7.53;74.66
65718;BME280;52445;52.466;-1.016;2023-12-29T11:40:57;99044.81;;;7.52;73.91
65718;BME280;52445;52.466;-1.016;2023-12-29T11:43:26;99039.66;;;7.52;74.36
65718;BME280;52445;52.466;-1.016;2023-12-29T11:45:53;99035.38;;;7.52;73.68
65718;BME280;52445;52.466;-1.016;2023-12-29T11:48:56;99041.41;;;7.53;73.96
65718;BME280;52445;52.466;-1.016;2023-12-29T11:51:42;99039.66;;;7.52;74.12
65718;BME280;52445;52.466;-1.016;2023-12-29T11:54:21;99036.19;;;7.56;73.86
65718;BME280;52445;52.466;-1.016;2023-12-29T11:56:49;99043.94;;;7.54;73.25
65718;BME280;52445;52.466;-1.016;2023-12-29T11:59:26;99049.09;;;7.54;73.25
65718;BME280;52445;52.466;-1.016;2023-12-29T12:01:55;99039.63;;;7.61;74.17
65718;BME280;52445;52.466;-1.016;2023-12-29T12:04:43;99031.03;;;7.59;73.29
65718;BME280;52445;52.466;-1.016;2023-12-29T12:13:01;99033.59;;;7.64;72.83
65718;BME280;52445;52.466;-1.016;2023-12-29T12:18:05;99049.03;;;7.70;73.54
65718;BME280;52445;52.466;-1.016;2023-12-29T12:20:35;99054.19;;;7.70;73.42
65718;BME280;52445;52.466;-1.016;2023-12-29T12:23:10;99046.41;;;7.71;73.68
65718;BME280;52445;52.466;-1.016;2023-12-29T12:25:38;99032.69;;;7.69;72.62
65718;BME280;52445;52.466;-1.016;2023-12-29T12:28:07;99030.94;;;7.71;72.59
65718;BME280;52445;52.466;-1.016;2023-12-29T12:30:35;99025.78;;;7.75;73.01
65718;BME280;52445;52.466;-1.016;2023-12-29T12:33:03;99034.38;;;7.77;72.63
65718;BME280;52445;52.466;-1.016;2023-12-29T12:35:32;99025.75;;;7.78;72.33
65718;BME280;52445;52.466;-1.016;2023-12-29T12:40:44;99010.28;;;7.78;72.59
65718;BME280;52445;52.466;-1.016;2023-12-29T12:43:14;99012.88;;;7.73;72.32
65718;BME280;52445;52.466;-1.016;2023-12-29T12:45:47;99007.72;;;7.78;72.28
65718;BME280;52445;52.466;-1.016;2023-12-29T12:48:22;99005.03;;;7.87;71.45
65718;BME280;52445;52.466;-1.016;2023-12-29T12:50:50;99003.28;;;7.95;72.72
65718;BME280;52445;52.466;-1.016;2023-12-29T12:53:17;99007.56;;;7.93;72.40
65718;BME280;52445;52.466;-1.016;2023-12-29T12:55:49;99010.91;;;8.05;72.32
65718;BME280;52445;52.466;-1.016;2023-12-29T12:58:18;99005.75;;;8.06;72.25
65718;BME280;52445;52.466;-1.016;2023-12-29T13:00:47;99007.47;;;8.06;71.79
65718;BME280;52445;52.466;-1.016;2023-12-29T13:03:19;98996.31;;;8.07;71.95
65718;BME280;52445;52.466;-1.016;2023-12-29T13:05:45;98999.72;;;8.06;72.59
65718;BME280;52445;52.466;-1.016;2023-12-29T13:08:12;98992.84;;;8.08;71.40
65718;BME280;52445;52.466;-1.016;2023-12-29T13:10:44;98979.97;;;8.06;72.32
65718;BME280;52445;52.466;-1.016;2023-12-29T13:13:11;98967.13;;;8.00;71.38
65718;BME280;52445;52.466;-1.016;2023-12-29T13:15:47;98974.84;;;7.98;71.12
65718;BME280;52445;52.466;-1.016;2023-12-29T13:18:15;98986.94;;;7.93;71.91
65718;BME280;52445;52.466;-1.016;2023-12-29T13:20:44;98997.25;;;7.96;71.29
65718;BME280;52445;52.466;-1.016;2023-12-29T13:23:12;98997.28;;;7.92;71.50
65718;BME280;52445;52.466;-1.016;2023-12-29T13:25:40;99002.41;;;7.93;71.95
65718;BME280;52445;52.466;-1.016;2023-12-29T13:28:09;99004.97;;;7.96;72.25
65718;BME280;52445;52.466;-1.016;2023-12-29T13:30:37;99016.16;;;7.95;71.88
65718;BME280;52445;52.466;-1.016;2023-12-29T13:33:25;99004.16;;;7.91;71.13
65718;BME280;52445;52.466;-1.016;2023-12-29T13:36:05;99008.47;;;7.89;71.44
65718;BME280;52445;52.466;-1.016;2023-12-29T13:38:40;99010.19;;;7.87;71.59
65718;BME280;52445;52.466;-1.016;2023-12-29T13:41:11;99021.38;;;7.89;71.66